createdAt,value
2017-09-13T00:02:18.267Z,100352
2017-09-13T00:04:46.827Z,100356
2017-09-13T00:07:15.028Z,100355
2017-09-13T00:09:43.237Z,100355
2017-09-13T00:12:11.463Z,100346
2017-09-13T00:14:39.731Z,100336
2017-09-13T00:17:07.953Z,100326
2017-09-13T00:19:36.940Z,100326
2017-09-13T00:22:06.313Z,100333
2017-09-13T00:24:34.526Z,100324
2017-09-13T00:27:03.565Z,100322
2017-09-13T00:29:31.779Z,100313
2017-09-13T00:32:00.036Z,100307
2017-09-13T00:34:28.286Z,100305
2017-09-13T00:36:56.512Z,100309
2017-09-13T00:39:25.891Z,100300
2017-09-13T00:41:54.119Z,100296
2017-09-13T00:44:22.401Z,100293
2017-09-13T00:46:50.628Z,100295
2017-09-13T00:49:19.664Z,100294
2017-09-13T00:51:47.876Z,100297
2017-09-13T00:54:16.111Z,100300
2017-09-13T00:56:44.709Z,100297
2017-09-13T00:59:12.937Z,100297
2017-09-13T01:01:41.942Z,100286
2017-09-13T01:04:10.941Z,100283
2017-09-13T01:06:39.293Z,100284
2017-09-13T01:09:08.315Z,100280
2017-09-13T01:11:36.532Z,100277
2017-09-13T01:14:04.753Z,100266
2017-09-13T01:16:32.970Z,100255
2017-09-13T01:19:01.660Z,100252
2017-09-13T01:21:29.880Z,100248
2017-09-13T01:23:58.145Z,100245
2017-09-13T01:26:28.150Z,100253
2017-09-13T01:28:56.408Z,100236
2017-09-13T01:31:24.661Z,100247
2017-09-13T01:33:53.041Z,100240
2017-09-13T01:36:21.272Z,100233
2017-09-13T01:38:50.275Z,100234
2017-09-13T01:41:18.517Z,100231
2017-09-13T01:43:46.788Z,100222
2017-09-13T01:46:15.154Z,100221
2017-09-13T01:48:43.402Z,100210
2017-09-13T01:51:11.633Z,100195
2017-09-13T01:53:39.900Z,100198
2017-09-13T01:56:08.899Z,100193
2017-09-13T01:58:37.959Z,100187
2017-09-13T02:01:06.135Z,100188
2017-09-13T02:03:34.485Z,100177
2017-09-13T02:06:02.740Z,100170
2017-09-13T02:08:31.363Z,100165
2017-09-13T02:10:59.568Z,100157
2017-09-13T02:13:28.576Z,100152
2017-09-13T02:15:56.777Z,100147
2017-09-13T02:18:24.990Z,100134
2017-09-13T02:20:53.205Z,100132
2017-09-13T02:23:21.432Z,100126
2017-09-13T02:25:49.653Z,100127
2017-09-13T02:28:17.852Z,100110
2017-09-13T02:30:46.462Z,100091
2017-09-13T02:33:15.555Z,100067
2017-09-13T02:35:43.802Z,100074
2017-09-13T02:38:12.074Z,100057
2017-09-13T02:40:40.330Z,100057
2017-09-13T02:43:08.592Z,100064
2017-09-13T02:45:36.982Z,100057
2017-09-13T02:48:05.273Z,100051
2017-09-13T02:50:33.593Z,100041
2017-09-13T02:53:02.280Z,100038
2017-09-13T02:55:30.530Z,100040
2017-09-13T02:57:58.787Z,100033
2017-09-13T03:00:27.755Z,100033
2017-09-13T03:02:56.007Z,100016
2017-09-13T03:05:24.984Z,100021
2017-09-13T03:07:53.253Z,100007
2017-09-13T03:10:21.471Z,99993
2017-09-13T03:12:49.702Z,99972
2017-09-13T03:15:18.381Z,99964
2017-09-13T03:17:46.676Z,99972
2017-09-13T03:20:14.895Z,99975
2017-09-13T03:22:43.139Z,99971
2017-09-13T03:25:12.132Z,99970
2017-09-13T03:27:41.238Z,99965
2017-09-13T03:30:10.234Z,99968
2017-09-13T03:32:38.533Z,99963
2017-09-13T03:35:06.769Z,99956
2017-09-13T03:37:35.405Z,99956
2017-09-13T03:40:03.610Z,99948
2017-09-13T03:42:31.837Z,99936
2017-09-13T03:45:00.050Z,99915
2017-09-13T03:47:28.255Z,99906
2017-09-13T03:49:57.256Z,99900
2017-09-13T03:52:25.525Z,99893
2017-09-13T03:54:57.931Z,99888
2017-09-13T03:57:26.131Z,99884
2017-09-13T03:59:54.341Z,99871
2017-09-13T04:02:23.372Z,99880
2017-09-13T04:04:51.601Z,99873
2017-09-13T04:07:20.606Z,99885
2017-09-13T04:09:49.617Z,99883
2017-09-13T04:12:17.852Z,99877
2017-09-13T04:14:46.055Z,99871
2017-09-13T04:17:14.251Z,99868
2017-09-13T04:19:43.228Z,99858
2017-09-13T04:22:11.426Z,99853
2017-09-13T04:24:39.648Z,99837
2017-09-13T04:27:09.023Z,99807
2017-09-13T04:29:37.236Z,99804
2017-09-13T04:32:05.474Z,99786
2017-09-13T04:34:33.723Z,99790
2017-09-13T04:37:01.924Z,99780
2017-09-13T04:39:30.498Z,99781
2017-09-13T04:41:59.511Z,99777
2017-09-13T04:44:28.370Z,99770
2017-09-13T04:46:56.661Z,99754
2017-09-13T04:49:24.932Z,99762
2017-09-13T04:51:53.133Z,99743
2017-09-13T04:54:21.413Z,99716
2017-09-13T04:56:50.385Z,99718
2017-09-13T04:59:19.578Z,99695
2017-09-13T05:01:47.800Z,99701
2017-09-13T05:04:16.031Z,99692
2017-09-13T05:06:44.297Z,99689
2017-09-13T05:09:12.511Z,99680
2017-09-13T05:11:40.729Z,99656
2017-09-13T05:14:08.980Z,99648
2017-09-13T05:16:37.275Z,99637
2017-09-13T05:19:05.551Z,99621
2017-09-13T05:21:33.805Z,99616
2017-09-13T05:24:02.242Z,99605
2017-09-13T05:26:32.238Z,99582
2017-09-13T05:29:00.484Z,99573
2017-09-13T05:31:29.076Z,99569
2017-09-13T05:33:57.362Z,99566
2017-09-13T05:36:25.577Z,99543
2017-09-13T05:38:53.850Z,99531
2017-09-13T05:41:22.900Z,99519
2017-09-13T05:43:51.948Z,99509
2017-09-13T05:46:20.201Z,99499
2017-09-13T05:48:49.256Z,99495
2017-09-13T05:51:17.941Z,99495
2017-09-13T05:53:46.171Z,99484
2017-09-13T05:56:14.395Z,99475
2017-09-13T05:58:42.618Z,99467
2017-09-13T06:01:10.864Z,99459
2017-09-13T06:03:39.072Z,99442
2017-09-13T06:06:07.311Z,99440
2017-09-13T06:08:35.578Z,99428
2017-09-13T06:11:03.847Z,99412
2017-09-13T06:13:32.141Z,99400
2017-09-13T06:16:00.676Z,99399
2017-09-13T06:18:29.654Z,99384
2017-09-13T06:20:58.033Z,99374
2017-09-13T06:23:26.219Z,99355
2017-09-13T06:25:54.912Z,99357
2017-09-13T06:28:23.135Z,99339
2017-09-13T06:30:52.119Z,99346
2017-09-13T06:33:21.061Z,99335
2017-09-13T06:35:49.282Z,99324
2017-09-13T06:38:17.562Z,99326
2017-09-13T06:40:46.615Z,99318
2017-09-13T06:43:14.821Z,99296
2017-09-13T06:45:45.620Z,99296
2017-09-13T06:48:13.896Z,99283
2017-09-13T06:50:42.226Z,99274
2017-09-13T06:53:11.215Z,99274
2017-09-13T06:55:40.254Z,99271
2017-09-13T06:58:08.523Z,99262
2017-09-13T07:00:36.758Z,99243
2017-09-13T07:03:05.774Z,99232
2017-09-13T07:05:35.430Z,99236
2017-09-13T07:08:04.354Z,99220
2017-09-13T07:10:33.516Z,99215
2017-09-13T07:13:01.861Z,99209
2017-09-13T07:15:30.107Z,99212
2017-09-13T07:17:59.120Z,99197
2017-09-13T07:20:27.460Z,99182
2017-09-13T07:22:56.479Z,99184
2017-09-13T07:25:24.726Z,99194
2017-09-13T07:27:52.912Z,99176
2017-09-13T07:30:22.369Z,99172
2017-09-13T07:32:50.655Z,99161
2017-09-13T07:35:18.915Z,99164
2017-09-13T07:37:47.313Z,99169
2017-09-13T07:40:15.676Z,99145
2017-09-13T07:42:43.950Z,99132
2017-09-13T07:45:12.261Z,99134
2017-09-13T07:47:41.274Z,99120
2017-09-13T07:50:09.528Z,99118
2017-09-13T07:52:37.747Z,99117
2017-09-13T07:55:06.031Z,99115
2017-09-13T07:57:34.280Z,99121
2017-09-13T08:00:02.561Z,99113
2017-09-13T08:02:30.852Z,99110
2017-09-13T08:04:59.141Z,99108
2017-09-13T08:07:27.373Z,99107
2017-09-13T08:09:56.508Z,99099
2017-09-13T08:12:25.121Z,99096
2017-09-13T08:14:54.226Z,99087
2017-09-13T08:17:23.223Z,99080
2017-09-13T08:33:28.512Z,99065
2017-09-13T08:35:56.782Z,99061
2017-09-13T08:38:25.055Z,99064
2017-09-13T08:43:28.767Z,99038
2017-09-13T08:45:57.124Z,99031
2017-09-13T08:48:25.308Z,99026
2017-09-13T08:50:53.521Z,99026
2017-09-13T08:53:21.713Z,99011
2017-09-13T08:55:50.253Z,99011
2017-09-13T08:58:18.439Z,99012
2017-09-13T09:00:46.634Z,99023
2017-09-13T09:03:14.876Z,98995
2017-09-13T09:05:43.067Z,98995
2017-09-13T09:08:11.276Z,98993
2017-09-13T09:10:40.244Z,98981
2017-09-13T09:13:08.889Z,98980
2017-09-13T09:15:37.071Z,98976
2017-09-13T09:18:05.278Z,98970
2017-09-13T09:20:33.604Z,98966
2017-09-13T09:23:01.823Z,98963
2017-09-13T09:25:30.015Z,98956
2017-09-13T09:27:58.177Z,98955
2017-09-13T09:30:26.387Z,98945
2017-09-13T09:32:54.599Z,98943
2017-09-13T09:35:23.187Z,98957
2017-09-13T09:37:51.376Z,98927
2017-09-13T09:40:19.550Z,98930
2017-09-13T09:42:47.807Z,98921
2017-09-13T09:45:16.067Z,98912
2017-09-13T09:47:44.315Z,98916
2017-09-13T09:50:12.507Z,98915
2017-09-13T09:52:40.779Z,98898
2017-09-13T09:55:09.791Z,98888
2017-09-13T09:57:38.021Z,98894
2017-09-13T10:00:06.286Z,98893
2017-09-13T10:02:35.286Z,98894
2017-09-13T10:05:03.559Z,98886
2017-09-13T10:07:32.004Z,98882
2017-09-13T10:10:00.324Z,98868
2017-09-13T10:12:29.053Z,98869
2017-09-13T10:14:57.286Z,98877
2017-09-13T10:17:25.518Z,98867
2017-09-13T10:19:53.712Z,98862
2017-09-13T10:22:22.683Z,98861
2017-09-13T10:24:50.866Z,98875
2017-09-13T10:27:19.511Z,98880
2017-09-13T10:29:47.692Z,98859
2017-09-13T10:32:15.907Z,98894
2017-09-13T10:34:44.907Z,98905
2017-09-13T10:37:13.123Z,98894
2017-09-13T10:39:41.324Z,98877
2017-09-13T10:42:09.536Z,98865
2017-09-13T10:44:37.759Z,98875
2017-09-13T10:47:06.232Z,98889
2017-09-13T10:49:34.788Z,98873
2017-09-13T10:52:02.996Z,98884
2017-09-13T10:54:31.200Z,98876
2017-09-13T10:57:00.160Z,98896
2017-09-13T10:59:28.368Z,98888
2017-09-13T11:01:57.351Z,98886
2017-09-13T11:04:26.379Z,98881
2017-09-13T11:06:55.802Z,98908
2017-09-13T11:09:24.055Z,98899
2017-09-13T11:11:52.524Z,98911
2017-09-13T11:14:20.732Z,98913
2017-09-13T11:16:48.938Z,98911
2017-09-13T11:19:17.277Z,98910
2017-09-13T11:21:45.492Z,98918
2017-09-13T11:24:13.695Z,98915
2017-09-13T11:26:41.923Z,98930
2017-09-13T11:29:10.132Z,98914
2017-09-13T11:31:39.072Z,98937
2017-09-13T11:34:07.292Z,98923
2017-09-13T11:36:36.243Z,98923
2017-09-13T11:39:04.782Z,98927
2017-09-13T11:41:33.016Z,98924
2017-09-13T11:44:01.214Z,98952
2017-09-13T11:46:30.302Z,98939
2017-09-13T11:48:58.544Z,98947
2017-09-13T11:51:26.820Z,98959
2017-09-13T11:53:55.179Z,98939
2017-09-13T11:56:23.418Z,98947
2017-09-13T11:58:52.495Z,98944
2017-09-13T12:01:21.588Z,98931
2017-09-13T12:03:50.224Z,98932
2017-09-13T12:06:18.449Z,98944
2017-09-13T12:08:46.659Z,98944
2017-09-13T12:11:15.027Z,98965
2017-09-13T12:13:43.300Z,98942
2017-09-13T12:16:11.872Z,98939
2017-09-13T12:18:40.880Z,98946
2017-09-13T12:21:09.076Z,98941
2017-09-13T12:23:37.266Z,98954
2017-09-13T12:26:05.470Z,98979
2017-09-13T12:28:34.502Z,98960
2017-09-13T12:31:02.742Z,98998
2017-09-13T12:33:31.708Z,99008
2017-09-13T12:35:59.931Z,99032
2017-09-13T12:38:28.139Z,99036
2017-09-13T12:40:56.344Z,99074
2017-09-13T12:43:24.557Z,99056
2017-09-13T12:45:52.762Z,99059
2017-09-13T12:48:20.983Z,99043
2017-09-13T12:50:49.278Z,99059
2017-09-13T12:53:17.528Z,99055
2017-09-13T12:55:46.502Z,99040
2017-09-13T12:58:14.724Z,99058
2017-09-13T13:00:42.908Z,99060
2017-09-13T13:03:11.138Z,99041
2017-09-13T13:05:40.155Z,99042
2017-09-13T13:08:08.393Z,99018
2017-09-13T13:10:36.606Z,99035
2017-09-13T13:13:04.940Z,99047
2017-09-13T13:15:33.140Z,99042
2017-09-13T13:18:02.576Z,99039
2017-09-13T13:20:30.773Z,99074
2017-09-13T13:22:58.981Z,99059
2017-09-13T13:25:28.043Z,99051
2017-09-13T13:27:56.245Z,99047
2017-09-13T13:30:25.256Z,99054
2017-09-13T13:32:53.513Z,99058
2017-09-13T13:35:22.512Z,99055
2017-09-13T13:37:50.732Z,99041
2017-09-13T13:40:18.951Z,99042
2017-09-13T13:42:47.972Z,99050
2017-09-13T13:45:16.239Z,99039
2017-09-13T13:47:44.445Z,99025
2017-09-13T13:50:12.724Z,99049
2017-09-13T13:52:40.940Z,99051
2017-09-13T13:55:09.898Z,99054
2017-09-13T13:57:38.106Z,99061
2017-09-13T14:00:07.166Z,99040
2017-09-13T14:02:38.472Z,99081
2017-09-13T14:05:07.585Z,99054
2017-09-13T14:07:35.840Z,99065
2017-09-13T14:10:05.014Z,99071
2017-09-13T14:12:34.001Z,99086
2017-09-13T14:15:02.216Z,99071
2017-09-13T14:17:30.447Z,99075
2017-09-13T14:19:58.697Z,99072
2017-09-13T14:22:26.961Z,99083
2017-09-13T14:24:55.593Z,99087
2017-09-13T14:27:24.571Z,99081
2017-09-13T14:29:52.813Z,99098
2017-09-13T14:32:21.035Z,99101
2017-09-13T14:34:51.024Z,99089
2017-09-13T14:37:19.275Z,99112
2017-09-13T14:39:47.524Z,99118
2017-09-13T14:42:16.702Z,99106
2017-09-13T14:44:45.686Z,99114
2017-09-13T14:47:14.692Z,99097
2017-09-13T14:49:44.697Z,99107
2017-09-13T14:52:13.753Z,99097
2017-09-13T14:54:42.034Z,99097
2017-09-13T14:57:10.249Z,99107
2017-09-13T14:59:38.512Z,99117
2017-09-13T15:02:07.563Z,99108
2017-09-13T15:04:35.956Z,99116
2017-09-13T15:07:04.620Z,99122
2017-09-13T15:09:32.825Z,99119
2017-09-13T15:12:01.093Z,99134
2017-09-13T15:14:29.338Z,99147
2017-09-13T15:16:57.586Z,99156
2017-09-13T15:19:26.823Z,99168
2017-09-13T15:21:55.140Z,99142
2017-09-13T15:24:24.140Z,99158
2017-09-13T15:26:53.705Z,99154
2017-09-13T15:29:27.891Z,99159
2017-09-13T15:31:58.028Z,99169
2017-09-13T15:34:29.702Z,99163
2017-09-13T15:39:34.366Z,99165
2017-09-13T15:42:03.595Z,99170
2017-09-13T15:44:31.816Z,99175
2017-09-13T15:47:02.812Z,99186
2017-09-13T15:49:32.120Z,99192
2017-09-13T15:52:00.381Z,99197
2017-09-13T15:54:28.693Z,99200
2017-09-13T15:56:57.717Z,99168
2017-09-13T15:59:25.991Z,99187
2017-09-13T16:04:41.621Z,99210
2017-09-13T16:07:10.714Z,99203
2017-09-13T16:09:39.811Z,99191
2017-09-13T16:12:08.092Z,99225
2017-09-13T16:14:38.006Z,99227
2017-09-13T16:17:07.219Z,99227
2017-09-13T16:19:35.954Z,99219
2017-09-13T16:22:05.797Z,99225
2017-09-13T16:24:34.654Z,99239
2017-09-13T16:27:03.649Z,99254
2017-09-13T16:29:32.730Z,99251
2017-09-13T16:32:01.777Z,99251
2017-09-13T16:34:30.029Z,99258
2017-09-13T16:36:59.217Z,99246
2017-09-13T16:39:27.477Z,99254
2017-09-13T16:41:57.076Z,99248
2017-09-13T16:44:29.046Z,99244
2017-09-13T16:46:57.338Z,99250
2017-09-13T16:49:25.544Z,99239
2017-09-13T16:51:54.359Z,99258
2017-09-13T16:54:24.547Z,99244
2017-09-13T16:56:57.126Z,99266
2017-09-13T16:59:28.098Z,99252
2017-09-13T17:01:56.453Z,99255
2017-09-13T17:04:25.775Z,99283
2017-09-13T17:06:54.245Z,99268
2017-09-13T17:09:23.409Z,99273
2017-09-13T17:11:51.664Z,99267
2017-09-13T17:14:23.556Z,99269
2017-09-13T17:16:52.976Z,99266
2017-09-13T17:19:21.329Z,99272
2017-09-13T17:21:49.557Z,99274
2017-09-13T17:24:19.526Z,99269
2017-09-13T17:26:47.756Z,99273
2017-09-13T17:29:16.854Z,99255
2017-09-13T17:31:45.917Z,99264
2017-09-13T17:34:15.858Z,99277
2017-09-13T17:36:49.565Z,99287
2017-09-13T17:39:18.243Z,99276
2017-09-13T17:41:47.235Z,99306
2017-09-13T17:44:16.190Z,99295
2017-09-13T17:46:44.445Z,99294
2017-09-13T17:49:12.776Z,99310
2017-09-13T17:51:41.837Z,99293
2017-09-13T17:54:10.110Z,99306
2017-09-13T17:56:38.470Z,99299
2017-09-13T17:59:06.750Z,99295
2017-09-13T18:01:35.030Z,99294
2017-09-13T18:04:03.353Z,99304
2017-09-13T18:06:32.515Z,99307
2017-09-13T18:09:00.795Z,99309
2017-09-13T18:11:29.103Z,99300
2017-09-13T18:13:57.458Z,99308
2017-09-13T18:16:26.143Z,99295
2017-09-13T18:18:54.500Z,99318
2017-09-13T18:21:22.801Z,99323
2017-09-13T18:23:52.028Z,99325
2017-09-13T18:26:20.509Z,99326
2017-09-13T18:28:50.385Z,99322
2017-09-13T18:31:19.038Z,99327
2017-09-13T18:33:48.713Z,99330
2017-09-13T18:36:17.448Z,99332
2017-09-13T18:38:47.281Z,99334
2017-09-13T18:41:20.891Z,99329
2017-09-13T18:43:53.918Z,99339
2017-09-13T18:46:24.342Z,99341
2017-09-13T18:48:54.177Z,99330
2017-09-13T18:51:23.088Z,99336
2017-09-13T18:53:52.696Z,99330
2017-09-13T18:56:23.083Z,99344
2017-09-13T18:58:53.370Z,99343
2017-09-13T19:01:22.013Z,99338
2017-09-13T19:03:52.862Z,99338
2017-09-13T19:06:24.089Z,99338
2017-09-13T19:08:54.921Z,99345
2017-09-13T19:11:47.465Z,99343
2017-09-13T19:14:17.528Z,99342
2017-09-13T19:16:46.771Z,99332
2017-09-13T19:19:16.450Z,99337
2017-09-13T19:21:47.286Z,99340
2017-09-13T19:24:16.692Z,99337
2017-09-13T19:26:45.973Z,99335
2017-09-13T19:29:21.303Z,99332
2017-09-13T19:31:50.036Z,99335
2017-09-13T19:34:23.745Z,99344
2017-09-13T19:36:52.955Z,99334
2017-09-13T19:39:21.642Z,99335
2017-09-13T19:41:55.652Z,99339
2017-09-13T19:44:27.900Z,99342
2017-09-13T19:47:04.787Z,99348
2017-09-13T19:49:34.966Z,99335
2017-09-13T19:52:05.095Z,99340
2017-09-13T19:54:33.580Z,99337
2017-09-13T19:57:02.404Z,99341
2017-09-13T20:08:25.931Z,99344
2017-09-13T20:11:08.029Z,99347
2017-09-13T20:27:09.979Z,99357
2017-09-13T20:39:37.025Z,99359
2017-09-13T20:42:07.753Z,99341
2017-09-13T20:44:36.266Z,99359
2017-09-13T20:47:11.760Z,99351
2017-09-13T20:49:44.357Z,99356
2017-09-13T20:52:12.794Z,99355
2017-09-13T20:54:45.856Z,99356
2017-09-13T20:57:15.284Z,99363
2017-09-13T20:59:43.897Z,99359
2017-09-13T21:02:16.434Z,99352
2017-09-13T21:04:51.330Z,99355
2017-09-13T21:07:29.173Z,99355
2017-09-13T21:10:04.683Z,99353
2017-09-13T21:12:37.569Z,99358
2017-09-13T23:36:19.989Z,99383
2017-09-13T23:41:53.856Z,99387
2017-09-13T23:47:36.067Z,99374
